sensor_id;sensor_type;location;lat;lon;timestamp;temperature;humidity
38480;DHT22;62333;51.980;5.934;2024-01-25T00:01:19;11.90;80.70
38480;DHT22;62333;51.980;5.934;2024-01-25T00:03:45;11.90;80.00
38480;DHT22;62333;51.980;5.934;2024-01-25T00:06:11;11.90;79.90
38480;DHT22;62333;51.980;5.934;2024-01-25T00:08:36;11.90;79.90
38480;DHT22;62333;51.980;5.934;2024-01-25T00:11:02;11.90;79.80
38480;DHT22;62333;51.980;5.934;2024-01-25T00:13:28;11.90;79.70
38480;DHT22;62333;51.980;5.934;2024-01-25T00:15:54;11.90;79.70
38480;DHT22;62333;51.980;5.934;2024-01-25T00:18:20;11.90;79.60
38480;DHT22;62333;51.980;5.934;2024-01-25T00:20:46;11.90;79.60
38480;DHT22;62333;51.980;5.934;2024-01-25T00:23:12;11.90;79.50
38480;DHT22;62333;51.980;5.934;2024-01-25T00:25:37;11.90;80.00
38480;DHT22;62333;51.980;5.934;2024-01-25T00:28:03;11.90;79.30
38480;DHT22;62333;51.980;5.934;2024-01-25T00:30:29;11.90;79.20
38480;DHT22;62333;51.980;5.934;2024-01-25T00:32:56;11.90;79.20
38480;DHT22;62333;51.980;5.934;2024-01-25T00:35:21;11.80;79.10
38480;DHT22;62333;51.980;5.934;2024-01-25T00:37:47;11.80;79.00
38480;DHT22;62333;51.980;5.934;2024-01-25T00:40:13;11.80;79.10
38480;DHT22;62333;51.980;5.934;2024-01-25T00:42:44;11.80;79.10
38480;DHT22;62333;51.980;5.934;2024-01-25T00:45:11;11.80;79.00
38480;DHT22;62333;51.980;5.934;2024-01-25T00:47:37;11.80;78.90
38480;DHT22;62333;51.980;5.934;2024-01-25T00:50:04;11.80;78.90
38480;DHT22;62333;51.980;5.934;2024-01-25T00:52:30;11.80;78.90
38480;DHT22;62333;51.980;5.934;2024-01-25T00:54:56;11.80;78.90
38480;DHT22;62333;51.980;5.934;2024-01-25T00:57:22;11.80;79.40
38480;DHT22;62333;51.980;5.934;2024-01-25T00:59:48;11.80;78.70
38480;DHT22;62333;51.980;5.934;2024-01-25T01:02:14;11.80;78.70
38480;DHT22;62333;51.980;5.934;2024-01-25T01:04:40;11.80;78.60
38480;DHT22;62333;51.980;5.934;2024-01-25T01:07:06;11.80;78.60
38480;DHT22;62333;51.980;5.934;2024-01-25T01:09:32;11.80;78.50
38480;DHT22;62333;51.980;5.934;2024-01-25T01:11:58;11.80;78.50
38480;DHT22;62333;51.980;5.934;2024-01-25T01:14:24;11.80;78.40
38480;DHT22;62333;51.980;5.934;2024-01-25T01:16:50;11.70;78.30
38480;DHT22;62333;51.980;5.934;2024-01-25T01:19:16;11.70;78.30
38480;DHT22;62333;51.980;5.934;2024-01-25T01:21:42;11.70;78.20
38480;DHT22;62333;51.980;5.934;2024-01-25T01:24:10;11.70;78.20
38480;DHT22;62333;51.980;5.934;2024-01-25T01:26:39;11.70;78.20
38480;DHT22;62333;51.980;5.934;2024-01-25T01:29:07;11.70;78.10
38480;DHT22;62333;51.980;5.934;2024-01-25T01:31:33;11.70;78.10
38480;DHT22;62333;51.980;5.934;2024-01-25T01:33:59;11.70;78.10
38480;DHT22;62333;51.980;5.934;2024-01-25T01:36:25;11.70;78.10
38480;DHT22;62333;51.980;5.934;2024-01-25T01:38:50;11.70;78.00
38480;DHT22;62333;51.980;5.934;2024-01-25T01:41:16;11.70;77.90
38480;DHT22;62333;51.980;5.934;2024-01-25T01:43:41;11.60;77.80
38480;DHT22;62333;51.980;5.934;2024-01-25T01:46:12;11.60;77.80
38480;DHT22;62333;51.980;5.934;2024-01-25T01:48:43;11.60;77.70
38480;DHT22;62333;51.980;5.934;2024-01-25T01:51:09;11.60;77.80
38480;DHT22;62333;51.980;5.934;2024-01-25T01:53:36;11.50;77.70
38480;DHT22;62333;51.980;5.934;2024-01-25T01:56:01;11.50;77.70
38480;DHT22;62333;51.980;5.934;2024-01-25T01:58:28;11.50;77.60
38480;DHT22;62333;51.980;5.934;2024-01-25T02:00:56;11.50;77.60
38480;DHT22;62333;51.980;5.934;2024-01-25T02:03:22;11.50;77.60
38480;DHT22;62333;51.980;5.934;2024-01-25T02:05:48;11.50;77.60
38480;DHT22;62333;51.980;5.934;2024-01-25T02:08:14;11.50;77.60
38480;DHT22;62333;51.980;5.934;2024-01-25T02:10:40;11.50;77.50
38480;DHT22;62333;51.980;5.934;2024-01-25T02:13:06;11.50;77.50
38480;DHT22;62333;51.980;5.934;2024-01-25T02:15:31;11.40;77.50
38480;DHT22;62333;51.980;5.934;2024-01-25T02:17:57;11.40;77.50
38480;DHT22;62333;51.980;5.934;2024-01-25T02:20:23;11.40;77.50
38480;DHT22;62333;51.980;5.934;2024-01-25T02:22:49;11.40;77.50
38480;DHT22;62333;51.980;5.934;2024-01-25T02:25:14;11.30;77.40
38480;DHT22;62333;51.980;5.934;2024-01-25T02:27:40;11.30;77.40
38480;DHT22;62333;51.980;5.934;2024-01-25T02:30:06;11.30;77.40
38480;DHT22;62333;51.980;5.934;2024-01-25T02:32:33;11.30;77.40
38480;DHT22;62333;51.980;5.934;2024-01-25T02:34:59;11.30;77.40
38480;DHT22;62333;51.980;5.934;2024-01-25T02:37:24;11.30;77.40
38480;DHT22;62333;51.980;5.934;2024-01-25T02:39:51;11.30;77.40
38480;DHT22;62333;51.980;5.934;2024-01-25T02:42:17;11.20;77.30
38480;DHT22;62333;51.980;5.934;2024-01-25T02:44:43;11.20;77.30
38480;DHT22;62333;51.980;5.934;2024-01-25T02:47:09;11.10;77.20
38480;DHT22;62333;51.980;5.934;2024-01-25T02:49:35;11.10;77.20
38480;DHT22;62333;51.980;5.934;2024-01-25T02:52:00;11.10;77.30
38480;DHT22;62333;51.980;5.934;2024-01-25T02:54:26;11.10;77.20
38480;DHT22;62333;51.980;5.934;2024-01-25T02:56:52;11.10;77.20
38480;DHT22;62333;51.980;5.934;2024-01-25T02:59:18;11.00;77.20
38480;DHT22;62333;51.980;5.934;2024-01-25T03:01:44;11.00;77.30
38480;DHT22;62333;51.980;5.934;2024-01-25T03:04:10;11.00;77.30
38480;DHT22;62333;51.980;5.934;2024-01-25T03:06:36;11.00;77.30
38480;DHT22;62333;51.980;5.934;2024-01-25T03:09:02;11.00;77.30
38480;DHT22;62333;51.980;5.934;2024-01-25T03:11:30;11.00;77.30
38480;DHT22;62333;51.980;5.934;2024-01-25T03:13:56;11.00;77.20
38480;DHT22;62333;51.980;5.934;2024-01-25T03:16:22;11.00;77.30
38480;DHT22;62333;51.980;5.934;2024-01-25T03:18:48;10.90;77.20
38480;DHT22;62333;51.980;5.934;2024-01-25T03:21:13;10.90;77.20
38480;DHT22;62333;51.980;5.934;2024-01-25T03:23:39;10.90;77.10
38480;DHT22;62333;51.980;5.934;2024-01-25T03:26:04;10.90;77.10
38480;DHT22;62333;51.980;5.934;2024-01-25T03:28:31;10.90;77.10
38480;DHT22;62333;51.980;5.934;2024-01-25T03:30:56;10.90;77.10
38480;DHT22;62333;51.980;5.934;2024-01-25T03:33:22;10.90;77.10
38480;DHT22;62333;51.980;5.934;2024-01-25T03:35:48;10.90;77.10
38480;DHT22;62333;51.980;5.934;2024-01-25T03:38:13;10.80;77.20
38480;DHT22;62333;51.980;5.934;2024-01-25T03:40:39;10.80;77.20
38480;DHT22;62333;51.980;5.934;2024-01-25T03:43:05;10.90;77.30
38480;DHT22;62333;51.980;5.934;2024-01-25T03:45:31;10.90;77.30
38480;DHT22;62333;51.980;5.934;2024-01-25T03:47:58;10.80;77.30
38480;DHT22;62333;51.980;5.934;2024-01-25T03:50:24;10.80;77.30
38480;DHT22;62333;51.980;5.934;2024-01-25T03:52:49;10.80;77.20
38480;DHT22;62333;51.980;5.934;2024-01-25T03:55:15;10.80;77.90
38480;DHT22;62333;51.980;5.934;2024-01-25T03:57:41;10.70;77.30
38480;DHT22;62333;51.980;5.934;2024-01-25T04:00:08;10.70;77.30
38480;DHT22;62333;51.980;5.934;2024-01-25T04:02:34;10.70;77.30
38480;DHT22;62333;51.980;5.934;2024-01-25T04:05:00;10.70;77.40
38480;DHT22;62333;51.980;5.934;2024-01-25T04:07:25;10.70;77.30
38480;DHT22;62333;51.980;5.934;2024-01-25T04:09:51;10.70;77.40
38480;DHT22;62333;51.980;5.934;2024-01-25T04:12:17;10.60;77.40
38480;DHT22;62333;51.980;5.934;2024-01-25T04:14:42;10.70;77.50
38480;DHT22;62333;51.980;5.934;2024-01-25T04:17:08;10.60;77.50
38480;DHT22;62333;51.980;5.934;2024-01-25T04:19:35;10.60;77.40
38480;DHT22;62333;51.980;5.934;2024-01-25T04:22:01;10.60;77.40
38480;DHT22;62333;51.980;5.934;2024-01-25T04:24:27;10.60;77.40
38480;DHT22;62333;51.980;5.934;2024-01-25T04:26:52;10.60;77.40
38480;DHT22;62333;51.980;5.934;2024-01-25T04:29:18;10.60;77.50
38480;DHT22;62333;51.980;5.934;2024-01-25T04:31:45;10.60;77.60
38480;DHT22;62333;51.980;5.934;2024-01-25T04:34:12;10.60;77.50
38480;DHT22;62333;51.980;5.934;2024-01-25T04:36:38;10.60;77.60
38480;DHT22;62333;51.980;5.934;2024-01-25T04:39:04;10.60;77.60
38480;DHT22;62333;51.980;5.934;2024-01-25T04:41:30;10.50;77.50
38480;DHT22;62333;51.980;5.934;2024-01-25T04:43:55;10.50;77.50
38480;DHT22;62333;51.980;5.934;2024-01-25T04:46:21;10.50;77.60
38480;DHT22;62333;51.980;5.934;2024-01-25T04:48:46;10.50;77.50
38480;DHT22;62333;51.980;5.934;2024-01-25T04:51:19;10.50;77.60
38480;DHT22;62333;51.980;5.934;2024-01-25T04:53:48;10.50;77.50
38480;DHT22;62333;51.980;5.934;2024-01-25T04:56:13;10.40;77.60
38480;DHT22;62333;51.980;5.934;2024-01-25T04:58:39;10.40;77.60
38480;DHT22;62333;51.980;5.934;2024-01-25T05:01:05;10.40;77.70
38480;DHT22;62333;51.980;5.934;2024-01-25T05:03:32;10.40;77.60
38480;DHT22;62333;51.980;5.934;2024-01-25T05:05:58;10.40;77.60
38480;DHT22;62333;51.980;5.934;2024-01-25T05:08:24;10.40;77.70
38480;DHT22;62333;51.980;5.934;2024-01-25T05:10:50;10.40;77.80
38480;DHT22;62333;51.980;5.934;2024-01-25T05:13:15;10.40;77.80
38480;DHT22;62333;51.980;5.934;2024-01-25T05:15:41;10.40;77.80
38480;DHT22;62333;51.980;5.934;2024-01-25T05:18:07;10.40;77.80
38480;DHT22;62333;51.980;5.934;2024-01-25T05:20:32;10.40;77.80
38480;DHT22;62333;51.980;5.934;2024-01-25T05:23:03;10.30;77.80
38480;DHT22;62333;51.980;5.934;2024-01-25T05:25:29;10.30;77.80
38480;DHT22;62333;51.980;5.934;2024-01-25T05:27:55;10.30;77.80
38480;DHT22;62333;51.980;5.934;2024-01-25T05:30:22;10.30;77.80
38480;DHT22;62333;51.980;5.934;2024-01-25T05:32:48;10.30;77.90
38480;DHT22;62333;51.980;5.934;2024-01-25T05:35:19;10.30;77.90
38480;DHT22;62333;51.980;5.934;2024-01-25T05:37:44;10.20;77.90
38480;DHT22;62333;51.980;5.934;2024-01-25T05:40:10;10.20;78.00
38480;DHT22;62333;51.980;5.934;2024-01-25T05:42:36;10.20;78.00
38480;DHT22;62333;51.980;5.934;2024-01-25T05:45:03;10.20;78.00
38480;DHT22;62333;51.980;5.934;2024-01-25T05:47:29;10.20;78.00
38480;DHT22;62333;51.980;5.934;2024-01-25T05:49:55;10.20;78.00
38480;DHT22;62333;51.980;5.934;2024-01-25T05:52:21;10.10;78.00
38480;DHT22;62333;51.980;5.934;2024-01-25T05:54:48;10.10;78.00
38480;DHT22;62333;51.980;5.934;2024-01-25T05:57:14;10.10;78.00
38480;DHT22;62333;51.980;5.934;2024-01-25T05:59:40;10.10;78.00
38480;DHT22;62333;51.980;5.934;2024-01-25T06:02:05;10.10;78.80
38480;DHT22;62333;51.980;5.934;2024-01-25T06:04:31;10.10;78.20
38480;DHT22;62333;51.980;5.934;2024-01-25T06:06:57;10.00;78.10
38480;DHT22;62333;51.980;5.934;2024-01-25T06:09:23;10.00;78.20
38480;DHT22;62333;51.980;5.934;2024-01-25T06:11:50;10.00;78.20
38480;DHT22;62333;51.980;5.934;2024-01-25T06:14:17;10.00;78.20
38480;DHT22;62333;51.980;5.934;2024-01-25T06:16:42;10.00;78.20
38480;DHT22;62333;51.980;5.934;2024-01-25T06:19:08;10.00;78.20
38480;DHT22;62333;51.980;5.934;2024-01-25T06:21:34;10.00;78.20
38480;DHT22;62333;51.980;5.934;2024-01-25T06:24:04;10.00;78.20
38480;DHT22;62333;51.980;5.934;2024-01-25T06:26:30;10.00;78.20
38480;DHT22;62333;51.980;5.934;2024-01-25T06:28:56;10.00;78.30
38480;DHT22;62333;51.980;5.934;2024-01-25T06:31:25;10.00;78.30
38480;DHT22;62333;51.980;5.934;2024-01-25T06:33:51;10.00;78.40
38480;DHT22;62333;51.980;5.934;2024-01-25T06:36:19;10.00;78.40
38480;DHT22;62333;51.980;5.934;2024-01-25T06:38:44;9.90;78.40
38480;DHT22;62333;51.980;5.934;2024-01-25T06:41:10;9.90;78.50
38480;DHT22;62333;51.980;5.934;2024-01-25T06:43:36;9.90;78.50
38480;DHT22;62333;51.980;5.934;2024-01-25T06:46:01;9.90;78.50
38480;DHT22;62333;51.980;5.934;2024-01-25T06:48:27;9.90;78.60
38480;DHT22;62333;51.980;5.934;2024-01-25T06:50:53;9.90;78.60
38480;DHT22;62333;51.980;5.934;2024-01-25T06:53:19;9.90;78.60
38480;DHT22;62333;51.980;5.934;2024-01-25T06:55:44;9.90;78.60
38480;DHT22;62333;51.980;5.934;2024-01-25T06:58:10;9.80;78.50
38480;DHT22;62333;51.980;5.934;2024-01-25T07:00:36;9.80;78.50
38480;DHT22;62333;51.980;5.934;2024-01-25T07:03:04;9.80;78.50
38480;DHT22;62333;51.980;5.934;2024-01-25T07:05:30;9.80;78.60
38480;DHT22;62333;51.980;5.934;2024-01-25T07:07:58;9.80;78.60
38480;DHT22;62333;51.980;5.934;2024-01-25T07:10:24;9.80;78.60
38480;DHT22;62333;51.980;5.934;2024-01-25T07:12:50;9.80;78.60
38480;DHT22;62333;51.980;5.934;2024-01-25T07:15:17;9.80;78.60
38480;DHT22;62333;51.980;5.934;2024-01-25T07:17:42;9.90;78.70
38480;DHT22;62333;51.980;5.934;2024-01-25T07:20:08;9.90;78.70
38480;DHT22;62333;51.980;5.934;2024-01-25T07:22:34;9.90;78.70
38480;DHT22;62333;51.980;5.934;2024-01-25T07:25:00;9.90;78.70
38480;DHT22;62333;51.980;5.934;2024-01-25T07:27:26;10.00;78.80
38480;DHT22;62333;51.980;5.934;2024-01-25T07:29:51;9.90;78.80
38480;DHT22;62333;51.980;5.934;2024-01-25T07:32:18;10.00;78.90
38480;DHT22;62333;51.980;5.934;2024-01-25T07:34:44;9.90;78.80
38480;DHT22;62333;51.980;5.934;2024-01-25T07:37:09;10.00;78.90
38480;DHT22;62333;51.980;5.934;2024-01-25T07:39:36;10.00;79.00
38480;DHT22;62333;51.980;5.934;2024-01-25T07:42:02;10.00;79.00
38480;DHT22;62333;51.980;5.934;2024-01-25T07:44:28;10.00;79.10
38480;DHT22;62333;51.980;5.934;2024-01-25T07:46:54;10.00;79.10
38480;DHT22;62333;51.980;5.934;2024-01-25T07:49:19;9.90;79.10
38480;DHT22;62333;51.980;5.934;2024-01-25T07:51:45;9.90;79.20
38480;DHT22;62333;51.980;5.934;2024-01-25T07:54:12;9.90;79.30
38480;DHT22;62333;51.980;5.934;2024-01-25T07:56:37;9.90;79.20
38480;DHT22;62333;51.980;5.934;2024-01-25T07:59:03;10.00;79.30
38480;DHT22;62333;51.980;5.934;2024-01-25T08:01:29;10.00;79.30
38480;DHT22;62333;51.980;5.934;2024-01-25T08:03:54;10.00;79.30
38480;DHT22;62333;51.980;5.934;2024-01-25T08:06:21;10.00;79.40
38480;DHT22;62333;51.980;5.934;2024-01-25T08:08:46;10.00;79.50
38480;DHT22;62333;51.980;5.934;2024-01-25T08:11:12;10.00;79.60
38480;DHT22;62333;51.980;5.934;2024-01-25T08:13:38;10.10;79.80
38480;DHT22;62333;51.980;5.934;2024-01-25T08:16:04;10.00;79.70
38480;DHT22;62333;51.980;5.934;2024-01-25T08:18:29;10.10;79.80
38480;DHT22;62333;51.980;5.934;2024-01-25T08:20:55;10.10;79.90
38480;DHT22;62333;51.980;5.934;2024-01-25T08:23:21;10.10;79.90
38480;DHT22;62333;51.980;5.934;2024-01-25T08:25:47;10.10;79.90
38480;DHT22;62333;51.980;5.934;2024-01-25T08:28:13;10.10;80.00
38480;DHT22;62333;51.980;5.934;2024-01-25T08:30:39;10.10;80.10
38480;DHT22;62333;51.980;5.934;2024-01-25T08:33:04;10.20;80.20
38480;DHT22;62333;51.980;5.934;2024-01-25T08:35:30;10.10;80.40
38480;DHT22;62333;51.980;5.934;2024-01-25T08:37:56;10.10;80.60
38480;DHT22;62333;51.980;5.934;2024-01-25T08:40:22;10.10;80.80
38480;DHT22;62333;51.980;5.934;2024-01-25T08:42:47;10.20;81.10
38480;DHT22;62333;51.980;5.934;2024-01-25T08:45:13;10.20;81.20
38480;DHT22;62333;51.980;5.934;2024-01-25T08:47:39;10.30;81.40
38480;DHT22;62333;51.980;5.934;2024-01-25T08:50:05;10.30;81.40
38480;DHT22;62333;51.980;5.934;2024-01-25T08:52:38;10.40;81.40
38480;DHT22;62333;51.980;5.934;2024-01-25T08:55:06;10.40;81.40
38480;DHT22;62333;51.980;5.934;2024-01-25T08:57:32;10.50;81.50
38480;DHT22;62333;51.980;5.934;2024-01-25T08:59:58;10.50;81.70
38480;DHT22;62333;51.980;5.934;2024-01-25T09:02:27;10.50;81.70
38480;DHT22;62333;51.980;5.934;2024-01-25T09:04:55;10.60;82.00
38480;DHT22;62333;51.980;5.934;2024-01-25T09:07:20;10.60;82.40
38480;DHT22;62333;51.980;5.934;2024-01-25T09:09:46;10.70;82.80
38480;DHT22;62333;51.980;5.934;2024-01-25T09:12:12;10.80;83.20
38480;DHT22;62333;51.980;5.934;2024-01-25T09:14:38;10.90;83.10
38480;DHT22;62333;51.980;5.934;2024-01-25T09:17:04;11.00;82.80
38480;DHT22;62333;51.980;5.934;2024-01-25T09:19:30;11.10;82.60
38480;DHT22;62333;51.980;5.934;2024-01-25T09:21:56;11.10;82.10
38480;DHT22;62333;51.980;5.934;2024-01-25T09:24:25;11.10;81.80
38480;DHT22;62333;51.980;5.934;2024-01-25T09:26:51;11.20;81.50
38480;DHT22;62333;51.980;5.934;2024-01-25T09:29:16;11.20;81.30
38480;DHT22;62333;51.980;5.934;2024-01-25T09:31:42;11.30;81.70
38480;DHT22;62333;51.980;5.934;2024-01-25T09:34:08;11.20;80.90
38480;DHT22;62333;51.980;5.934;2024-01-25T09:36:34;11.20;80.90
38480;DHT22;62333;51.980;5.934;2024-01-25T09:38:59;11.10;80.80
38480;DHT22;62333;51.980;5.934;2024-01-25T09:41:25;11.10;80.60
38480;DHT22;62333;51.980;5.934;2024-01-25T09:43:50;11.20;80.50
38480;DHT22;62333;51.980;5.934;2024-01-25T09:46:16;11.20;80.50
38480;DHT22;62333;51.980;5.934;2024-01-25T09:48:44;11.20;80.40
38480;DHT22;62333;51.980;5.934;2024-01-25T09:51:12;11.30;80.30
38480;DHT22;62333;51.980;5.934;2024-01-25T09:53:39;11.30;80.10
38480;DHT22;62333;51.980;5.934;2024-01-25T09:56:09;11.30;79.90
38480;DHT22;62333;51.980;5.934;2024-01-25T09:58:53;11.30;79.70
38480;DHT22;62333;51.980;5.934;2024-01-25T10:01:20;11.30;79.40
38480;DHT22;62333;51.980;5.934;2024-01-25T10:03:45;11.20;79.60
38480;DHT22;62333;51.980;5.934;2024-01-25T10:06:15;11.30;79.50
38480;DHT22;62333;51.980;5.934;2024-01-25T10:08:41;11.30;79.40
38480;DHT22;62333;51.980;5.934;2024-01-25T10:11:08;11.30;79.20
38480;DHT22;62333;51.980;5.934;2024-01-25T10:13:41;11.30;79.10
38480;DHT22;62333;51.980;5.934;2024-01-25T10:16:10;11.40;78.80
38480;DHT22;62333;51.980;5.934;2024-01-25T10:18:35;11.40;78.80
38480;DHT22;62333;51.980;5.934;2024-01-25T10:21:02;11.40;78.80
38480;DHT22;62333;51.980;5.934;2024-01-25T10:23:28;11.40;78.80
38480;DHT22;62333;51.980;5.934;2024-01-25T10:25:56;11.50;78.80
38480;DHT22;62333;51.980;5.934;2024-01-25T10:28:24;11.50;78.60
38480;DHT22;62333;51.980;5.934;2024-01-25T10:31:00;11.60;78.70
38480;DHT22;62333;51.980;5.934;2024-01-25T10:33:27;11.70;78.70
38480;DHT22;62333;51.980;5.934;2024-01-25T10:35:57;11.80;78.70
38480;DHT22;62333;51.980;5.934;2024-01-25T10:38:33;11.90;78.70
38480;DHT22;62333;51.980;5.934;2024-01-25T10:41:01;12.00;78.70
38480;DHT22;62333;51.980;5.934;2024-01-25T10:43:28;12.10;78.80
38480;DHT22;62333;51.980;5.934;2024-01-25T10:45:56;12.20;78.70
38480;DHT22;62333;51.980;5.934;2024-01-25T10:48:24;12.30;78.80
38480;DHT22;62333;51.980;5.934;2024-01-25T10:50:51;12.30;78.80
38480;DHT22;62333;51.980;5.934;2024-01-25T10:53:18;12.40;78.80
38480;DHT22;62333;51.980;5.934;2024-01-25T10:55:44;12.40;78.90
38480;DHT22;62333;51.980;5.934;2024-01-25T10:58:13;12.40;78.80
38480;DHT22;62333;51.980;5.934;2024-01-25T11:00:38;12.40;78.80
38480;DHT22;62333;51.980;5.934;2024-01-25T11:03:05;12.40;78.90
38480;DHT22;62333;51.980;5.934;2024-01-25T11:05:32;12.30;78.80
38480;DHT22;62333;51.980;5.934;2024-01-25T11:07:58;12.30;78.80
38480;DHT22;62333;51.980;5.934;2024-01-25T11:10:27;12.30;78.90
38480;DHT22;62333;51.980;5.934;2024-01-25T11:13:00;12.40;78.80
38480;DHT22;62333;51.980;5.934;2024-01-25T11:15:36;12.40;78.80
38480;DHT22;62333;51.980;5.934;2024-01-25T11:18:04;12.50;78.80
38480;DHT22;62333;51.980;5.934;2024-01-25T11:20:33;12.60;78.90
38480;DHT22;62333;51.980;5.934;2024-01-25T11:23:01;12.70;78.80
38480;DHT22;62333;51.980;5.934;2024-01-25T11:25:31;12.90;78.70
38480;DHT22;62333;51.980;5.934;2024-01-25T11:27:58;12.90;78.40
38480;DHT22;62333;51.980;5.934;2024-01-25T11:30:25;12.90;78.40
38480;DHT22;62333;51.980;5.934;2024-01-25T11:32:50;12.90;78.30
38480;DHT22;62333;51.980;5.934;2024-01-25T11:35:16;12.80;78.30
38480;DHT22;62333;51.980;5.934;2024-01-25T11:37:43;12.80;78.40
38480;DHT22;62333;51.980;5.934;2024-01-25T11:40:10;12.80;78.40
38480;DHT22;62333;51.980;5.934;2024-01-25T11:42:36;12.70;78.90
38480;DHT22;62333;51.980;5.934;2024-01-25T11:45:03;12.70;78.10
38480;DHT22;62333;51.980;5.934;2024-01-25T11:47:29;12.70;78.20
38480;DHT22;62333;51.980;5.934;2024-01-25T11:49:54;12.70;78.20
38480;DHT22;62333;51.980;5.934;2024-01-25T11:52:20;12.80;78.10
38480;DHT22;62333;51.980;5.934;2024-01-25T11:54:46;12.90;77.90
38480;DHT22;62333;51.980;5.934;2024-01-25T11:57:11;12.90;77.70
38480;DHT22;62333;51.980;5.934;2024-01-25T11:59:37;13.00;77.60
38480;DHT22;62333;51.980;5.934;2024-01-25T12:02:03;12.90;77.50
38480;DHT22;62333;51.980;5.934;2024-01-25T12:04:29;12.90;77.50
38480;DHT22;62333;51.980;5.934;2024-01-25T12:06:55;12.90;77.50
38480;DHT22;62333;51.980;5.934;2024-01-25T12:09:21;12.80;77.40
38480;DHT22;62333;51.980;5.934;2024-01-25T12:11:49;12.80;77.40
38480;DHT22;62333;51.980;5.934;2024-01-25T12:14:16;12.80;77.40
38480;DHT22;62333;51.980;5.934;2024-01-25T12:16:42;12.80;77.50
38480;DHT22;62333;51.980;5.934;2024-01-25T12:19:08;12.80;77.40
38480;DHT22;62333;51.980;5.934;2024-01-25T12:21:34;12.80;77.40
38480;DHT22;62333;51.980;5.934;2024-01-25T12:24:00;12.80;77.20
38480;DHT22;62333;51.980;5.934;2024-01-25T12:26:25;12.70;77.10
38480;DHT22;62333;51.980;5.934;2024-01-25T12:28:51;12.70;77.20
38480;DHT22;62333;51.980;5.934;2024-01-25T12:31:17;12.70;77.20
38480;DHT22;62333;51.980;5.934;2024-01-25T12:33:43;12.80;77.20
38480;DHT22;62333;51.980;5.934;2024-01-25T12:36:09;12.80;77.10
38480;DHT22;62333;51.980;5.934;2024-01-25T12:38:35;12.90;77.00
38480;DHT22;62333;51.980;5.934;2024-01-25T12:41:01;13.00;77.10
38480;DHT22;62333;51.980;5.934;2024-01-25T12:43:26;13.00;77.10
38480;DHT22;62333;51.980;5.934;2024-01-25T12:45:52;13.00;77.00
38480;DHT22;62333;51.980;5.934;2024-01-25T12:48:18;13.00;77.00
38480;DHT22;62333;51.980;5.934;2024-01-25T12:50:44;13.00;77.00
38480;DHT22;62333;51.980;5.934;2024-01-25T12:53:12;12.90;77.00
38480;DHT22;62333;51.980;5.934;2024-01-25T12:55:39;13.00;77.00
38480;DHT22;62333;51.980;5.934;2024-01-25T12:58:05;13.10;77.10
38480;DHT22;62333;51.980;5.934;2024-01-25T13:00:31;13.20;77.00
38480;DHT22;62333;51.980;5.934;2024-01-25T13:02:56;13.30;76.90
38480;DHT22;62333;51.980;5.934;2024-01-25T13:05:22;13.40;76.80
38480;DHT22;62333;51.980;5.934;2024-01-25T13:07:49;13.40;77.00
38480;DHT22;62333;51.980;5.934;2024-01-25T13:10:14;13.30;77.00
38480;DHT22;62333;51.980;5.934;2024-01-25T13:12:41;13.40;77.10
38480;DHT22;62333;51.980;5.934;2024-01-25T13:15:07;13.30;77.00
38480;DHT22;62333;51.980;5.934;2024-01-25T13:17:35;13.30;77.00
38480;DHT22;62333;51.980;5.934;2024-01-25T13:20:01;13.20;77.00
38480;DHT22;62333;51.980;5.934;2024-01-25T13:22:28;13.20;77.00
38480;DHT22;62333;51.980;5.934;2024-01-25T13:24:55;13.20;76.90
38480;DHT22;62333;51.980;5.934;2024-01-25T13:27:21;13.00;76.80
38480;DHT22;62333;51.980;5.934;2024-01-25T13:29:46;13.00;76.80
38480;DHT22;62333;51.980;5.934;2024-01-25T13:32:12;13.00;76.80
38480;DHT22;62333;51.980;5.934;2024-01-25T13:34:38;12.90;76.60
38480;DHT22;62333;51.980;5.934;2024-01-25T13:37:03;12.80;76.60
38480;DHT22;62333;51.980;5.934;2024-01-25T13:39:29;12.70;76.60
38480;DHT22;62333;51.980;5.934;2024-01-25T13:41:55;12.70;76.40
38480;DHT22;62333;51.980;5.934;2024-01-25T13:44:22;12.70;76.40
38480;DHT22;62333;51.980;5.934;2024-01-25T13:46:47;12.60;76.30
38480;DHT22;62333;51.980;5.934;2024-01-25T13:49:13;12.60;76.40
38480;DHT22;62333;51.980;5.934;2024-01-25T13:51:38;12.50;76.30
38480;DHT22;62333;51.980;5.934;2024-01-25T13:54:04;12.50;76.40
38480;DHT22;62333;51.980;5.934;2024-01-25T13:56:30;12.40;76.50
38480;DHT22;62333;51.980;5.934;2024-01-25T13:58:55;12.40;76.40
38480;DHT22;62333;51.980;5.934;2024-01-25T14:01:21;12.40;76.60
38480;DHT22;62333;51.980;5.934;2024-01-25T14:03:47;12.40;76.60
38480;DHT22;62333;51.980;5.934;2024-01-25T14:06:13;12.30;76.60
38480;DHT22;62333;51.980;5.934;2024-01-25T14:08:38;12.30;76.70
38480;DHT22;62333;51.980;5.934;2024-01-25T14:11:04;12.30;76.80
38480;DHT22;62333;51.980;5.934;2024-01-25T14:13:31;12.20;76.60
38480;DHT22;62333;51.980;5.934;2024-01-25T14:15:57;12.20;76.80
38480;DHT22;62333;51.980;5.934;2024-01-25T14:18:26;12.20;76.90
38480;DHT22;62333;51.980;5.934;2024-01-25T14:20:52;12.20;77.60
38480;DHT22;62333;51.980;5.934;2024-01-25T14:23:17;12.10;77.00
38480;DHT22;62333;51.980;5.934;2024-01-25T14:25:43;12.10;77.20
38480;DHT22;62333;51.980;5.934;2024-01-25T14:28:10;12.00;77.10
38480;DHT22;62333;51.980;5.934;2024-01-25T14:30:36;12.00;77.20
38480;DHT22;62333;51.980;5.934;2024-01-25T14:33:02;11.90;77.50
38480;DHT22;62333;51.980;5.934;2024-01-25T14:35:29;11.90;78.00
38480;DHT22;62333;51.980;5.934;2024-01-25T14:37:55;11.80;78.10
38480;DHT22;62333;51.980;5.934;2024-01-25T14:40:21;11.80;78.10
38480;DHT22;62333;51.980;5.934;2024-01-25T14:42:47;11.70;78.10
38480;DHT22;62333;51.980;5.934;2024-01-25T14:45:13;11.70;78.10
38480;DHT22;62333;51.980;5.934;2024-01-25T14:47:38;11.70;78.30
38480;DHT22;62333;51.980;5.934;2024-01-25T14:50:05;11.70;78.40
38480;DHT22;62333;51.980;5.934;2024-01-25T14:52:31;11.70;78.50
38480;DHT22;62333;51.980;5.934;2024-01-25T14:55:00;11.60;78.80
38480;DHT22;62333;51.980;5.934;2024-01-25T14:57:26;11.60;78.90
38480;DHT22;62333;51.980;5.934;2024-01-25T14:59:52;11.60;79.10
38480;DHT22;62333;51.980;5.934;2024-01-25T15:02:18;11.60;79.30
38480;DHT22;62333;51.980;5.934;2024-01-25T15:04:44;11.60;79.20
38480;DHT22;62333;51.980;5.934;2024-01-25T15:07:10;11.60;79.50
38480;DHT22;62333;51.980;5.934;2024-01-25T15:09:35;11.60;79.70
38480;DHT22;62333;51.980;5.934;2024-01-25T15:12:01;11.60;79.70
38480;DHT22;62333;51.980;5.934;2024-01-25T15:14:27;11.60;79.80
38480;DHT22;62333;51.980;5.934;2024-01-25T15:16:52;11.60;79.90
38480;DHT22;62333;51.980;5.934;2024-01-25T15:19:18;11.60;80.10
38480;DHT22;62333;51.980;5.934;2024-01-25T15:21:45;11.60;79.90
38480;DHT22;62333;51.980;5.934;2024-01-25T15:24:11;11.60;79.90
38480;DHT22;62333;51.980;5.934;2024-01-25T15:26:40;11.70;80.00